Time;durP1;ratioP1;P1;durP2;ratioP2;P2;SDS_P1;SDS_P2;PMS_P1;PMS_P2;Temp;Humidity;BMP_temperature;BMP_pressure;BME280_temperature;BME280_humidity;BME280_pressure;Samples;Min_cycle;Max_cycle;Signal;HPM_P1;HPM_P2
2022/08/15 00:00:47;;;;;;;6.78;6.07;;;;;;;19.30;89.32;99317.91;5028111;28;20033;-78
2022/08/15 00:03:31;;;;;;;12.80;6.22;;;;;;;19.09;90.27;99305.91;5040173;28;20364;-80
2022/08/15 00:06:00;;;;;;;8.02;6.40;;;;;;;18.96;91.23;99313.06;5071724;28;20059;-77
2022/08/15 00:08:28;;;;;;;12.77;5.53;;;;;;;18.84;91.75;99309.53;5041991;28;20123;-79
2022/08/15 00:10:57;;;;;;;8.38;6.18;;;;;;;18.75;92.46;99319.72;5025250;28;20040;-79
2022/08/15 00:13:25;;;;;;;8.20;5.50;;;;;;;18.67;93.05;99314.66;5028427;28;20163;-79
2022/08/15 00:15:54;;;;;;;10.60;6.10;;;;;;;18.64;93.32;99297.22;5058081;28;20035;-80
2022/08/15 00:18:25;;;;;;;6.28;5.68;;;;;;;18.63;93.24;99308.16;5019570;28;20116;-78
2022/08/15 00:20:52;;;;;;;9.73;6.32;;;;;;;18.63;93.78;99316.16;5054559;28;20067;-79
2022/08/15 00:23:22;;;;;;;10.18;6.15;;;;;;;18.67;93.90;99317.34;5067943;28;20029;-78
2022/08/15 00:25:51;;;;;;;6.78;5.78;;;;;;;18.66;94.20;99326.44;5050271;28;20115;-78
2022/08/15 00:28:17;;;;;;;8.40;6.10;;;;;;;18.65;94.30;99324.81;5060934;28;20056;-79
2022/08/15 00:30:44;;;;;;;6.95;5.63;;;;;;;18.69;94.19;99321.44;5047808;28;20025;-80
2022/08/15 00:33:13;;;;;;;5.47;5.03;;;;;;;18.82;94.03;99325.81;5033855;28;20115;-78
2022/08/15 00:35:44;;;;;;;7.82;6.70;;;;;;;18.92;93.41;99322.56;5057017;28;20120;-78
2022/08/15 00:38:15;;;;;;;7.50;6.70;;;;;;;18.93;93.29;99310.84;5026852;28;20075;-77
2022/08/15 00:43:34;;;;;;;7.10;6.28;;;;;;;18.97;93.14;99290.56;5047725;28;20069;-78
2022/08/15 00:46:02;;;;;;;7.68;6.85;;;;;;;18.94;93.18;99296.38;5064617;28;20033;-78
2022/08/15 00:48:43;;;;;;;9.13;6.25;;;;;;;18.89;93.69;99290.09;5046894;28;20484;-77
2022/08/15 00:51:30;;;;;;;8.18;6.50;;;;;;;18.78;94.31;99278.28;5034426;28;20521;-78
2022/08/15 00:54:21;;;;;;;10.27;6.78;;;;;;;18.68;95.31;99273.50;5043034;28;20037;-77
2022/08/15 00:56:55;;;;;;;8.75;7.65;;;;;;;18.62;96.11;99242.31;5040838;28;20025;-77
2022/08/15 00:59:28;;;;;;;8.65;7.53;;;;;;;18.53;97.15;99210.50;5031273;28;20033;-78
2022/08/15 01:01:57;;;;;;;10.57;7.55;;;;;;;18.50;97.60;99188.72;5049452;28;20547;-79
2022/08/15 01:04:23;;;;;;;10.70;7.40;;;;;;;18.39;98.63;99179.63;5052910;28;20429;-78
2022/08/15 01:06:49;;;;;;;8.68;7.68;;;;;;;18.33;99.18;99168.78;5034778;28;20045;-78
2022/08/15 01:09:18;;;;;;;10.65;7.05;;;;;;;18.26;99.46;99165.41;5056498;28;20032;-80
2022/08/15 01:11:47;;;;;;;7.28;6.57;;;;;;;18.27;99.36;99168.91;5056055;28;20043;-78
2022/08/15 01:14:14;;;;;;;11.05;7.35;;;;;;;18.23;99.58;99184.56;5047164;28;20478;-78
2022/08/15 01:16:40;;;;;;;9.38;7.00;;;;;;;18.25;99.49;99181.66;5043221;28;20155;-79
2022/08/15 01:19:14;;;;;;;8.25;7.55;;;;;;;18.31;99.25;99181.59;5029406;28;20473;-78
2022/08/15 01:22:06;;;;;;;8.35;7.32;;;;;;;18.38;98.49;99183.34;5050913;28;20040;-78
2022/08/15 01:24:52;;;;;;;11.40;7.00;;;;;;;18.50;97.98;99186.88;5048521;28;20098;-79
2022/08/15 01:27:22;;;;;;;10.23;6.78;;;;;;;18.60;97.28;99176.41;5039804;28;20145;-78
2022/08/15 01:29:50;;;;;;;7.63;6.82;;;;;;;18.66;96.64;99173.88;5027392;28;20060;-79
2022/08/15 01:32:16;;;;;;;8.52;6.25;;;;;;;18.75;96.51;99175.19;5050256;28;20390;-79
2022/08/15 01:34:42;;;;;;;11.30;6.78;;;;;;;18.90;95.60;99168.56;5043325;28;20065;-79
2022/08/15 01:37:08;;;;;;;9.50;6.18;;;;;;;18.97;94.96;99163.91;5038909;28;20043;-80
2022/08/15 01:39:46;;;;;;;12.65;6.60;;;;;;;19.07;94.44;99160.66;5020604;28;20498;-79
2022/08/15 01:42:18;;;;;;;6.50;5.80;;;;;;;19.15;93.93;99159.53;5042703;28;20036;-79
2022/08/15 01:44:52;;;;;;;8.20;6.28;;;;;;;19.15;93.29;99160.34;5046940;28;20044;-80
2022/08/15 01:47:25;;;;;;;11.73;6.72;;;;;;;19.01;93.50;99172.31;5053323;28;20032;-80
2022/08/15 01:49:58;;;;;;;8.02;6.30;;;;;;;18.87;94.58;99166.34;5038929;28;20522;-80
2022/08/15 01:52:30;;;;;;;9.98;5.68;;;;;;;18.82;94.94;99170.56;5062988;28;20024;-80
2022/08/15 01:54:58;;;;;;;11.63;6.07;;;;;;;18.71;95.39;99187.41;5063314;28;20413;-81
2022/08/15 01:57:24;;;;;;;7.55;6.82;;;;;;;18.51;96.45;99209.06;5058563;28;20031;-82
2022/08/15 01:59:57;;;;;;;14.98;7.05;;;;;;;18.35;97.68;99224.72;5067556;28;20094;-82
2022/08/15 02:02:25;;;;;;;8.80;7.22;;;;;;;18.23;99.05;99235.38;5048759;28;20047;-83
2022/08/15 02:04:52;;;;;;;7.80;7.00;;;;;;;18.09;100.00;99207.97;5044581;28;20037;-78
2022/08/15 02:07:25;;;;;;;10.50;7.05;;;;;;;17.90;100.00;99197.25;5047785;28;21369;-77
2022/08/15 02:09:55;;;;;;;8.43;6.72;;;;;;;17.73;100.00;99202.41;5036176;28;20036;-81
2022/08/15 02:12:31;;;;;;;8.32;6.90;;;;;;;17.65;100.00;99200.84;5040207;28;20037;-79
2022/08/15 02:15:00;;;;;;;7.80;7.00;;;;;;;17.63;100.00;99213.59;5038357;28;20037;-80
2022/08/15 02:17:27;;;;;;;9.02;7.32;;;;;;;17.60;100.00;99204.19;5034693;28;20538;-84
2022/08/15 02:19:57;;;;;;;9.77;6.72;;;;;;;17.63;100.00;99204.78;5022943;28;20228;-86
2022/08/15 02:22:24;;;;;;;7.70;6.30;;;;;;;17.65;100.00;99200.84;5044130;28;20070;-81
2022/08/15 02:24:51;;;;;;;11.93;6.13;;;;;;;17.69;100.00;99206.56;5067981;28;20069;-79
2022/08/15 02:27:17;;;;;;;9.77;6.30;;;;;;;17.75;100.00;99208.34;5035627;28;20482;-80
2022/08/15 02:29:43;;;;;;;8.27;4.95;;;;;;;17.75;100.00;99199.50;5035530;28;20031;-82
2022/08/15 02:32:15;;;;;;;10.95;5.60;;;;;;;17.79;100.00;99193.50;5048517;28;20101;-79
2022/08/15 02:34:43;;;;;;;7.78;5.53;;;;;;;17.78;100.00;99199.06;5031680;28;20029;-79
2022/08/15 02:37:11;;;;;;;6.20;5.35;;;;;;;17.73;100.00;99194.38;5037164;28;20036;-80
2022/08/15 02:39:40;;;;;;;5.50;5.00;;;;;;;17.73;100.00;99197.88;5033414;28;20039;-81
2022/08/15 02:42:06;;;;;;;7.38;6.18;;;;;;;17.88;100.00;99193.19;5042271;28;20078;-80
2022/08/15 02:44:32;;;;;;;6.55;5.95;;;;;;;17.96;100.00;99191.03;5033010;28;20029;-80
2022/08/15 02:47:02;;;;;;;9.07;5.93;;;;;;;18.06;100.00;99189.69;5035120;28;20032;-81
2022/08/15 02:49:28;;;;;;;7.78;6.32;;;;;;;18.07;100.00;99197.50;5037132;28;20024;-81
2022/08/15 02:51:54;;;;;;;8.65;6.25;;;;;;;18.08;100.00;99199.13;5034795;28;20042;-80
2022/08/15 02:54:27;;;;;;;10.40;6.93;;;;;;;17.98;100.00;99201.53;5057604;28;20036;-81
2022/08/15 02:56:55;;;;;;;7.00;6.28;;;;;;;17.95;100.00;99202.75;5059787;28;20477;-81
2022/08/15 02:59:22;;;;;;;8.13;7.30;;;;;;;17.88;100.00;99212.72;5047446;28;20021;-81
2022/08/15 03:01:49;;;;;;;11.88;8.35;;;;;;;17.81;100.00;99201.28;5056456;28;20032;-81
2022/08/15 03:04:19;;;;;;;10.48;9.35;;;;;;;17.79;100.00;99200.72;5049444;28;20035;-80
2022/08/15 03:06:47;;;;;;;10.80;9.68;;;;;;;17.83;100.00;99196.53;5032218;28;20041;-80
2022/08/15 03:09:15;;;;;;;12.38;10.68;;;;;;;17.90;100.00;99194.59;5058873;28;20032;-80
2022/08/15 03:12:04;;;;;;;12.75;11.18;;;;;;;17.93;100.00;99188.00;5034230;28;20040;-80
2022/08/15 03:14:36;;;;;;;15.52;12.98;;;;;;;17.93;100.00;99194.16;5010918;28;20458;-80
2022/08/15 03:17:05;;;;;;;15.32;13.73;;;;;;;17.93;100.00;99191.47;5033752;28;20042;-80
2022/08/15 03:19:31;;;;;;;17.75;14.20;;;;;;;17.93;100.00;99191.47;5064445;28;20025;-80
2022/08/15 03:21:57;;;;;;;18.23;15.63;;;;;;;17.92;100.00;99179.16;5056948;28;20044;-80
2022/08/15 03:24:24;;;;;;;18.98;15.93;;;;;;;17.94;100.00;99185.09;5039755;28;20037;-80
2022/08/15 03:26:50;;;;;;;18.98;16.98;;;;;;;18.01;100.00;99186.88;5026782;28;20086;-80
2022/08/15 03:29:19;;;;;;;19.63;16.70;;;;;;;18.06;100.00;99200.41;5018568;28;20590;-81
2022/08/15 03:31:49;;;;;;;21.88;16.77;;;;;;;18.10;100.00;99205.06;5054405;28;20036;-80
2022/08/15 03:34:21;;;;;;;18.90;16.88;;;;;;;18.17;100.00;99207.66;5024792;28;20501;-81
2022/08/15 03:36:48;;;;;;;17.08;15.48;;;;;;;18.26;99.70;99208.19;5053483;28;20045;-81
2022/08/15 03:39:15;;;;;;;16.98;15.13;;;;;;;18.31;99.21;99208.34;5036405;28;20047;-80
2022/08/15 03:41:43;;;;;;;19.67;17.20;;;;;;;18.35;98.94;99206.81;5050755;28;20025;-81
2022/08/15 03:44:11;;;;;;;17.25;15.48;;;;;;;18.34;98.37;99204.38;5036612;28;20040;-81
2022/08/15 03:46:38;;;;;;;18.73;14.85;;;;;;;18.30;98.50;99190.63;5044663;28;20033;-80
2022/08/15 03:49:04;;;;;;;16.02;14.52;;;;;;;18.35;98.18;99187.28;5057626;28;20481;-81
2022/08/15 03:51:33;;;;;;;18.25;16.30;;;;;;;18.43;98.22;99178.94;5037855;28;20391;-80
2022/08/15 03:54:07;;;;;;;19.13;17.02;;;;;;;18.47;97.55;99174.75;5041603;28;20112;-81
2022/08/15 03:56:35;;;;;;;20.45;16.25;;;;;;;18.31;97.25;99167.38;5021576;28;20465;-79
2022/08/15 03:59:04;;;;;;;18.73;16.90;;;;;;;18.15;98.21;99174.19;5037684;28;20029;-80
2022/08/15 04:01:34;;;;;;;21.35;18.45;;;;;;;17.99;99.08;99173.75;5035773;28;20112;-80
2022/08/15 04:04:04;;;;;;;21.70;19.40;;;;;;;17.86;99.83;99156.00;5012628;28;20064;-80
2022/08/15 04:06:40;;;;;;;24.05;20.92;;;;;;;17.68;100.00;99148.81;5033426;28;20051;-80
2022/08/15 04:09:06;;;;;;;24.98;22.48;;;;;;;17.54;100.00;99154.31;5036132;28;20028;-80
2022/08/15 04:11:34;;;;;;;24.27;21.77;;;;;;;17.44;100.00;99162.03;5051703;28;20031;-82
2022/08/15 04:14:00;;;;;;;25.35;22.67;;;;;;;17.44;100.00;99162.84;4965401;28;20798;-80
2022/08/15 04:16:27;;;;;;;29.00;21.20;;;;;;;17.51;100.00;99178.78;5043751;28;20105;-79
2022/08/15 04:18:53;;;;;;;21.13;19.10;;;;;;;17.60;100.00;99181.97;5053298;28;21689;-80
2022/08/15 04:21:19;;;;;;;20.17;18.40;;;;;;;17.72;100.00;99187.41;5034090;28;20033;-80
2022/08/15 04:23:47;;;;;;;24.85;19.75;;;;;;;17.85;100.00;99181.09;5031191;28;20067;-80
2022/08/15 04:26:15;;;;;;;23.85;21.55;;;;;;;17.85;100.00;99168.53;5057278;28;20333;-81
2022/08/15 04:28:41;;;;;;;23.77;21.33;;;;;;;17.85;100.00;99154.38;5036742;28;20039;-81
2022/08/15 04:31:16;;;;;;;23.85;21.35;;;;;;;17.82;99.81;99152.16;5041749;28;20037;-80
2022/08/15 04:33:44;;;;;;;23.33;20.92;;;;;;;17.75;99.90;99154.91;5064373;28;20040;-80
2022/08/15 04:36:15;;;;;;;21.77;19.48;;;;;;;17.67;100.00;99145.34;5051306;28;20029;-81
2022/08/15 04:38:44;;;;;;;24.92;20.75;;;;;;;17.63;100.00;99146.00;5048112;28;20039;-80
2022/08/15 04:41:11;;;;;;;21.35;19.42;;;;;;;17.65;100.00;99142.06;5036438;28;20040;-80
2022/08/15 04:43:40;;;;;;;23.05;20.58;;;;;;;17.68;100.00;99136.25;5039957;28;20044;-80
2022/08/15 04:46:08;;;;;;;22.02;20.02;;;;;;;17.62;100.00;99131.81;5030346;28;20047;-80
2022/08/15 04:48:34;;;;;;;22.52;20.13;;;;;;;17.55;100.00;99123.88;5037024;28;20038;-81
2022/08/15 04:51:02;;;;;;;24.73;21.35;;;;;;;17.48;100.00;99131.16;5018498;28;20384;-80
2022/08/15 04:53:33;;;;;;;21.00;18.80;;;;;;;17.44;100.00;99129.97;5013089;28;20044;-81
2022/08/15 04:56:01;;;;;;;17.52;15.70;;;;;;;17.46;100.00;99118.03;5041085;28;20111;-81
2022/08/15 04:58:30;;;;;;;19.38;17.08;;;;;;;17.48;100.00;99117.81;5046468;28;20032;-80
2022/08/15 05:01:07;;;;;;;17.35;15.50;;;;;;;17.53;100.00;99117.13;5039735;28;20044;-81
2022/08/15 05:03:39;;;;;;;17.50;15.80;;;;;;;17.53;100.00;99109.94;5044205;28;20477;-80
2022/08/15 05:06:08;;;;;;;17.00;15.27;;;;;;;17.53;100.00;99103.78;5046179;28;20124;-81
2022/08/15 05:08:37;;;;;;;17.30;15.05;;;;;;;17.48;100.00;99101.78;5043714;28;20033;-81
2022/08/15 05:11:17;;;;;;;15.80;13.95;;;;;;;17.37;100.00;99103.34;5045706;28;20064;-81
2022/08/15 05:13:47;;;;;;;14.00;11.60;;;;;;;17.32;100.00;99109.34;5037265;28;20371;-80
2022/08/15 05:16:20;;;;;;;13.48;11.70;;;;;;;17.29;100.00;99117.81;5049594;28;20029;-81
2022/08/15 05:18:46;;;;;;;14.38;12.38;;;;;;;17.30;100.00;99122.09;5031346;28;20052;-80
2022/08/15 05:21:12;;;;;;;12.10;11.00;;;;;;;17.35;100.00;99130.28;5051568;28;20028;-80
2022/08/15 05:23:40;;;;;;;12.98;11.52;;;;;;;17.36;100.00;99137.22;5047337;28;20054;-81
2022/08/15 05:26:10;;;;;;;15.90;13.20;;;;;;;17.32;100.00;99145.91;5052709;28;20036;-80
2022/08/15 05:28:39;;;;;;;14.77;13.38;;;;;;;17.29;100.00;99149.84;5050657;28;20490;-82
2022/08/15 05:31:10;;;;;;;17.48;15.70;;;;;;;17.21;100.00;99158.13;4962474;28;20050;-80
2022/08/15 05:33:38;;;;;;;16.63;14.82;;;;;;;17.16;100.00;99157.97;5051509;28;20478;-80
2022/08/15 05:36:06;;;;;;;18.50;13.27;;;;;;;17.14;100.00;99162.75;5017236;28;20032;-81
2022/08/15 05:38:41;;;;;;;15.43;11.98;;;;;;;17.13;100.00;99163.75;5050869;28;20121;-80
2022/08/15 05:41:31;;;;;;;13.75;12.30;;;;;;;17.10;100.00;99163.16;5064572;28;20045;-80
2022/08/15 05:44:03;;;;;;;15.52;13.88;;;;;;;17.10;100.00;99165.81;5013160;28;20044;-79
2022/08/15 05:46:46;;;;;;;15.55;13.20;;;;;;;17.16;100.00;99172.16;5036942;28;20056;-80
2022/08/15 05:49:18;;;;;;;16.23;13.93;;;;;;;17.27;100.00;99181.28;5017234;28;20033;-79
2022/08/15 05:51:48;;;;;;;16.33;14.90;;;;;;;17.32;100.00;99173.44;5047306;28;20027;-80
2022/08/15 05:54:45;;;;;;;17.25;15.48;;;;;;;17.33;100.00;99179.56;5039203;28;20047;-80
2022/08/15 05:57:33;;;;;;;16.55;14.85;;;;;;;17.44;100.00;99178.06;5029662;28;20545;-79
2022/08/15 06:00:10;;;;;;;20.63;16.00;;;;;;;17.54;99.58;99182.88;5039960;28;20033;-79
2022/08/15 06:02:51;;;;;;;20.63;16.65;;;;;;;17.54;99.23;99181.03;5014398;28;20739;-80
2022/08/15 06:05:28;;;;;;;25.17;19.05;;;;;;;17.53;99.19;99194.59;5019467;28;20056;-80
2022/08/15 06:07:56;;;;;;;26.75;19.35;;;;;;;17.49;99.45;99191.56;5029155;28;20495;-80
2022/08/15 06:10:26;;;;;;;21.63;19.52;;;;;;;17.52;99.78;99185.75;5035242;28;20033;-79
2022/08/15 06:13:08;;;;;;;19.75;17.73;;;;;;;17.62;100.00;99195.94;5033747;28;20482;-80
2022/08/15 06:16:01;;;;;;;20.05;18.13;;;;;;;17.63;99.29;99186.09;5039608;28;20492;-80
2022/08/15 06:18:29;;;;;;;21.17;18.95;;;;;;;17.67;99.47;99184.59;5052702;28;20049;-80
2022/08/15 06:21:14;;;;;;;19.15;17.17;;;;;;;17.68;99.52;99183.53;5045192;28;20037;-79
2022/08/15 06:24:16;;;;;;;20.83;17.92;;;;;;;17.68;99.28;99178.19;5052299;28;20032;-80
2022/08/15 06:27:13;;;;;;;20.75;17.65;;;;;;;17.67;99.41;99169.38;5004027;28;20032;-81
2022/08/15 06:29:51;;;;;;;19.23;17.15;;;;;;;17.68;99.42;99178.19;5049186;28;20039;-81
2022/08/15 06:32:30;;;;;;;17.73;15.75;;;;;;;17.69;98.99;99171.84;5030127;28;20494;-80
2022/08/15 06:35:15;;;;;;;18.92;15.23;;;;;;;17.66;98.83;99167.72;5030187;28;20051;-80
2022/08/15 06:37:53;;;;;;;17.88;14.98;;;;;;;17.59;98.99;99169.66;5040751;28;20517;-79
2022/08/15 06:40:38;;;;;;;15.63;14.02;;;;;;;17.51;99.13;99161.94;5049427;28;20043;-81
2022/08/15 06:43:07;;;;;;;16.70;14.98;;;;;;;17.46;99.77;99167.94;5041093;28;20051;-81
2022/08/15 06:45:55;;;;;;;14.65;13.20;;;;;;;17.50;99.99;99165.66;5064638;28;20494;-80
2022/08/15 06:48:25;;;;;;;15.95;13.98;;;;;;;17.58;99.58;99162.69;5047427;28;20032;-78
2022/08/15 06:50:54;;;;;;;13.85;12.60;;;;;;;17.69;98.97;99174.50;5055464;28;20402;-79
2022/08/15 06:53:29;;;;;;;17.55;14.57;;;;;;;17.72;98.25;99158.84;5043634;28;20085;-80
2022/08/15 06:56:04;;;;;;;17.73;15.93;;;;;;;17.76;97.82;99158.41;5045569;28;20075;-80
2022/08/15 06:58:59;;;;;;;18.13;16.30;;;;;;;17.73;97.51;99156.97;5048392;28;20037;-80
2022/08/15 07:01:54;;;;;;;17.80;16.15;;;;;;;17.67;97.84;99157.88;5052102;28;20040;-81
2022/08/15 07:04:32;;;;;;;16.17;14.40;;;;;;;17.72;98.34;99164.19;5063672;28;20116;-79
2022/08/15 07:07:01;;;;;;;17.02;14.82;;;;;;;17.82;98.50;99176.22;5050339;28;20056;-79
2022/08/15 07:09:27;;;;;;;16.88;15.05;;;;;;;17.90;97.79;99173.22;5037165;28;20071;-79
2022/08/15 07:12:14;;;;;;;17.98;15.68;;;;;;;17.99;97.33;99176.41;5069315;28;20101;-80
2022/08/15 07:14:58;;;;;;;17.20;15.55;;;;;;;18.05;96.94;99174.69;5039305;28;20033;-79
2022/08/15 07:17:37;;;;;;;17.98;16.35;;;;;;;18.05;96.84;99186.19;5043090;28;20434;-79
2022/08/15 07:20:08;;;;;;;21.25;16.45;;;;;;;18.10;96.90;99188.19;5037867;28;20512;-79
2022/08/15 07:22:40;;;;;;;19.05;16.48;;;;;;;18.06;96.75;99184.34;5048389;28;20033;-78
2022/08/15 07:25:18;;;;;;;19.88;16.48;;;;;;;18.00;96.73;99185.25;5051088;28;20591;-80
2022/08/15 07:28:00;;;;;;;18.60;16.73;;;;;;;17.84;97.20;99195.50;5027024;28;20033;-79
2022/08/15 07:30:55;;;;;;;17.77;16.08;;;;;;;17.80;98.55;99191.63;5047367;28;20035;-78
2022/08/15 07:33:50;;;;;;;18.48;16.60;;;;;;;17.85;98.49;99183.78;5030444;28;20056;-79
2022/08/15 07:36:26;;;;;;;18.35;15.57;;;;;;;17.93;98.34;99194.16;5032759;28;20041;-80
2022/08/15 07:38:54;;;;;;;17.67;15.98;;;;;;;17.98;98.29;99196.19;5054571;28;20094;-80
2022/08/15 07:41:30;;;;;;;20.67;17.75;;;;;;;17.98;97.95;99201.53;5035831;28;20063;-81
2022/08/15 07:44:18;;;;;;;19.17;17.30;;;;;;;17.99;97.77;99197.78;5023796;28;20047;-78
2022/08/15 07:47:00;;;;;;;18.35;16.13;;;;;;;17.95;97.89;99202.75;5037725;28;20051;-80
2022/08/15 07:49:32;;;;;;;18.43;16.63;;;;;;;18.00;98.03;99209.31;5049601;28;20031;-80
2022/08/15 07:51:59;;;;;;;18.95;17.05;;;;;;;18.03;98.07;99219.56;5034225;28;20536;-81
2022/08/15 07:54:42;;;;;;;18.35;16.55;;;;;;;18.05;97.68;99231.66;5051919;28;20091;-80
2022/08/15 07:57:23;;;;;;;17.92;16.02;;;;;;;18.07;97.71;99234.09;5060512;28;20125;-81
2022/08/15 08:00:11;;;;;;;17.23;15.57;;;;;;;18.13;97.56;99243.94;5056191;28;20402;-80
2022/08/15 08:03:00;;;;;;;15.60;14.10;;;;;;;18.14;97.36;99245.56;5037195;28;20173;-81
2022/08/15 08:05:31;;;;;;;19.45;15.52;;;;;;;18.19;97.51;99251.06;5036304;28;20040;-80
2022/08/15 08:08:00;;;;;;;17.30;15.38;;;;;;;18.20;97.39;99250.00;5033720;28;20100;-81
2022/08/15 08:10:32;;;;;;;16.13;13.80;;;;;;;18.19;97.18;99239.53;5017767;28;20059;-80
2022/08/15 08:13:27;;;;;;;15.50;13.73;;;;;;;18.16;97.42;99237.31;5038773;28;20123;-82
2022/08/15 08:16:19;;;;;;;13.13;11.75;;;;;;;18.10;97.66;99242.50;5033066;28;20043;-83
2022/08/15 08:19:10;;;;;;;14.18;12.70;;;;;;;18.07;97.69;99244.78;5052135;28;20166;-80
2022/08/15 08:22:09;;;;;;;14.32;11.93;;;;;;;17.93;97.92;99252.16;5042721;28;20044;-80
2022/08/15 08:24:36;;;;;;;13.23;11.57;;;;;;;17.88;98.54;99258.19;5034353;28;20390;-79
2022/08/15 08:27:30;;;;;;;19.73;11.95;;;;;;;17.92;98.89;99270.03;5038498;28;20036;-81
2022/08/15 08:30:12;;;;;;;12.63;11.43;;;;;;;18.00;98.81;99268.94;5044923;28;20032;-80
2022/08/15 08:32:47;;;;;;;13.18;11.45;;;;;;;18.02;99.15;99263.34;5047734;28;20029;-80
2022/08/15 08:35:29;;;;;;;14.13;11.43;;;;;;;18.08;99.39;99262.47;5061194;28;20477;-80
2022/08/15 08:38:22;;;;;;;12.23;9.95;;;;;;;18.10;98.57;99260.41;5048584;28;20047;-81
2022/08/15 08:41:24;;;;;;;16.40;11.57;;;;;;;18.07;98.39;99261.66;5066446;28;20109;-80
2022/08/15 08:44:24;;;;;;;15.80;11.23;;;;;;;18.05;98.24;99262.91;5054940;28;20445;-80
2022/08/15 08:47:20;;;;;;;10.73;9.30;;;;;;;18.03;98.14;99265.81;5055540;28;20059;-81
2022/08/15 08:50:13;;;;;;;13.95;9.85;;;;;;;17.93;98.19;99268.19;5028828;28;20064;-82
2022/08/15 08:53:33;;;;;;;11.55;9.10;;;;;;;17.82;98.17;99259.84;5030460;28;20515;-80
2022/08/15 08:56:06;;;;;;;10.60;9.40;;;;;;;17.81;98.67;99262.75;4971083;28;20038;-79
2022/08/15 08:58:36;;;;;;;9.20;8.30;;;;;;;17.82;99.27;99259.84;5019393;28;20036;-81
2022/08/15 09:01:06;;;;;;;10.52;8.32;;;;;;;17.90;98.47;99264.09;5031743;28;20524;-80
2022/08/15 09:03:39;;;;;;;10.98;9.60;;;;;;;17.93;98.45;99266.31;5066554;28;20436;-80
2022/08/15 09:06:10;;;;;;;9.77;8.88;;;;;;;17.94;98.27;99267.16;5035967;28;20053;-80
2022/08/15 09:08:41;;;;;;;8.93;8.02;;;;;;;17.92;98.38;99262.03;5031010;28;20056;-80
2022/08/15 09:11:52;;;;;;;9.98;8.95;;;;;;;17.94;98.48;99261.81;5039598;28;20041;-81
2022/08/15 09:14:17;;;;;;;11.63;8.82;;;;;;;18.04;98.51;99263.97;5027994;28;20041;-80
2022/08/15 09:16:45;;;;;;;9.68;7.43;;;;;;;18.17;98.23;99271.06;5067180;28;20392;-81
2022/08/15 09:19:17;;;;;;;17.73;8.75;;;;;;;18.30;97.96;99280.78;5046919;28;20044;-79
2022/08/15 09:21:45;;;;;;;8.05;7.35;;;;;;;18.43;97.43;99285.13;5063767;28;20048;-81
2022/08/15 09:24:11;;;;;;;10.82;7.45;;;;;;;18.49;96.62;99281.53;5056627;28;20068;-79
2022/08/15 09:26:43;;;;;;;9.15;7.38;;;;;;;18.50;96.27;99282.38;5063023;28;20032;-79
2022/08/15 09:29:22;;;;;;;10.10;8.13;;;;;;;18.56;96.03;99284.16;5045601;28;20037;-79
2022/08/15 09:32:11;;;;;;;7.63;6.90;;;;;;;18.62;95.28;99298.50;5024799;28;20028;-80
2022/08/15 09:34:49;;;;;;;8.63;7.82;;;;;;;18.67;95.33;99299.44;5013642;28;20032;-79
2022/08/15 09:37:20;;;;;;;7.45;6.75;;;;;;;18.71;95.23;99303.28;5027929;28;20379;-80
2022/08/15 09:40:05;;;;;;;8.40;7.50;;;;;;;18.69;94.97;99305.38;5021400;28;20399;-79
2022/08/15 09:42:40;;;;;;;7.47;6.78;;;;;;;18.73;95.14;99303.06;5045059;28;20086;-78
2022/08/15 09:45:11;;;;;;;7.80;7.10;;;;;;;18.72;94.70;99306.78;5055592;28;20089;-78
2022/08/15 09:48:08;;;;;;;9.40;6.90;;;;;;;18.78;93.92;99308.56;5044483;28;20116;-80
2022/08/15 09:50:54;;;;;;;7.30;6.70;;;;;;;18.87;93.54;99313.59;5037787;28;20024;-80
2022/08/15 09:53:23;;;;;;;8.27;7.32;;;;;;;18.98;93.15;99312.81;5043046;28;20037;-80
2022/08/15 09:55:51;;;;;;;6.53;5.40;;;;;;;19.07;92.43;99310.63;5055217;28;20039;-79
2022/08/15 09:58:27;;;;;;;6.60;5.43;;;;;;;19.02;91.12;99315.84;5039517;28;20595;-78
2022/08/15 10:01:15;;;;;;;6.68;5.47;;;;;;;19.01;90.69;99316.91;5009808;28;20044;-78
2022/08/15 10:03:44;;;;;;;6.05;5.40;;;;;;;18.97;90.34;99317.34;5052921;28;20037;-77
2022/08/15 10:06:24;;;;;;;6.60;6.00;;;;;;;19.02;90.14;99315.84;5050082;28;20583;-80
2022/08/15 10:08:53;;;;;;;6.10;5.50;;;;;;;19.09;90.17;99311.25;5049863;28;20393;-79
2022/08/15 10:11:40;;;;;;;6.60;5.15;;;;;;;19.06;89.26;99303.66;5061514;28;20107;-80
2022/08/15 10:14:14;;;;;;;6.25;5.60;;;;;;;19.17;89.49;99308.25;5028363;28;20037;-79
2022/08/15 10:16:41;;;;;;;5.63;5.00;;;;;;;19.24;89.09;99304.66;5057907;28;20474;-79
2022/08/15 10:19:29;;;;;;;7.90;5.32;;;;;;;19.29;88.80;99304.75;5045060;28;20032;-78
2022/08/15 10:22:01;;;;;;;5.80;5.20;;;;;;;19.25;88.43;99299.06;5037531;28;20052;-79
2022/08/15 10:24:34;;;;;;;10.13;5.15;;;;;;;19.12;88.45;99294.72;5022573;28;20443;-79
2022/08/15 10:27:07;;;;;;;5.70;4.10;;;;;;;19.11;88.20;99290.44;5034044;28;20441;-79
2022/08/15 10:29:36;;;;;;;5.43;4.93;;;;;;;19.11;88.21;99289.59;5063439;28;20036;-77
2022/08/15 10:32:03;;;;;;;4.93;3.88;;;;;;;19.14;87.90;99286.47;5037707;28;20394;-78
2022/08/15 10:35:03;;;;;;;4.45;4.05;;;;;;;19.15;86.88;99280.88;5045629;28;20037;-78
2022/08/15 10:37:36;;;;;;;4.38;3.97;;;;;;;19.26;86.91;99279.25;5062864;28;20024;-78
2022/08/15 10:40:08;;;;;;;4.70;3.10;;;;;;;19.34;86.28;99280.78;5071381;28;20032;-78
2022/08/15 10:42:58;;;;;;;3.92;3.58;;;;;;;19.37;85.41;99276.81;5067293;28;20039;-79
2022/08/15 10:45:36;;;;;;;5.32;3.15;;;;;;;19.48;85.38;99275.22;5044696;28;20028;-78
2022/08/15 10:48:01;;;;;;;4.32;3.88;;;;;;;19.59;85.00;99272.50;5038337;28;20043;-78
2022/08/15 10:50:51;;;;;;;4.90;3.00;;;;;;;19.63;83.96;99267.50;5048630;28;20033;-79
2022/08/15 10:53:16;;;;;;;4.35;3.13;;;;;;;19.71;83.38;99275.22;5033914;28;20131;-80
2022/08/15 10:55:42;;;;;;;4.00;3.13;;;;;;;19.81;83.05;99279.97;5031549;28;20810;-79
2022/08/15 10:58:09;;;;;;;3.10;2.88;;;;;;;19.91;82.60;99275.88;5041100;28;21712;-80
2022/08/15 11:01:04;;;;;;;3.90;3.60;;;;;;;20.12;81.42;99279.00;5032208;28;20097;-80
2022/08/15 11:03:40;;;;;;;3.28;2.85;;;;;;;20.36;80.99;99276.25;5020622;28;20102;-80
2022/08/15 11:06:12;;;;;;;2.92;2.67;;;;;;;20.52;80.63;99283.56;5055079;28;20045;-79
2022/08/15 11:08:58;;;;;;;2.70;2.50;;;;;;;20.69;79.64;99282.78;5043347;28;20545;-79
2022/08/15 11:11:32;;;;;;;3.65;3.10;;;;;;;20.88;78.92;99286.09;5034224;28;20037;-79
2022/08/15 11:14:08;;;;;;;3.10;2.80;;;;;;;21.03;78.34;99282.91;5046488;28;20182;-79
2022/08/15 11:16:40;;;;;;;2.88;2.50;;;;;;;21.11;77.95;99279.00;5038123;28;20033;-77
2022/08/15 11:19:19;;;;;;;2.60;2.40;;;;;;;21.24;77.39;99279.72;5069071;28;20103;-79
2022/08/15 11:21:55;;;;;;;4.00;2.63;;;;;;;21.39;76.86;99271.91;5044524;28;20040;-79
2022/08/15 11:24:41;;;;;;;9.60;2.42;;;;;;;21.56;75.94;99288.00;5068301;28;20036;-80
2022/08/15 11:27:20;;;;;;;2.88;2.65;;;;;;;21.73;75.22;99273.72;5041607;28;20037;-80
2022/08/15 11:29:47;;;;;;;2.40;2.20;;;;;;;21.87;74.50;99282.28;5019463;28;20025;-80
2022/08/15 11:32:33;;;;;;;2.35;2.15;;;;;;;21.94;73.12;99276.72;5061579;28;20418;-80
2022/08/15 11:35:02;;;;;;;2.72;2.53;;;;;;;22.04;72.81;99274.16;5031217;28;20119;-81
2022/08/15 11:37:39;;;;;;;2.45;2.20;;;;;;;22.14;71.76;99276.16;5052832;28;20043;-81
2022/08/15 11:40:24;;;;;;;4.07;2.42;;;;;;;22.15;71.45;99268.91;5036887;28;20037;-80
2022/08/15 11:42:51;;;;;;;2.65;2.42;;;;;;;22.15;71.67;99271.63;5055984;28;20033;-82
2022/08/15 11:45:20;;;;;;;2.65;2.45;;;;;;;22.20;71.03;99277.06;5029149;28;20037;-81
2022/08/15 11:47:49;;;;;;;2.05;1.80;;;;;;;22.36;70.63;99274.53;5056006;28;20029;-83
2022/08/15 11:50:32;;;;;;;2.42;2.17;;;;;;;22.59;69.81;99273.47;5033763;28;20024;-83
2022/08/15 11:53:01;;;;;;;2.47;2.30;;;;;;;22.75;69.88;99285.22;5022051;28;20076;-83
2022/08/15 11:55:44;;;;;;;2.13;1.95;;;;;;;22.79;68.12;99278.25;5017107;28;20043;-85
2022/08/15 11:58:13;;;;;;;3.33;2.53;;;;;;;22.83;68.58;99269.66;5036284;28;20044;-83